TimeCDT,TemperatureF,Dew PointF,Humidity,Sea Level PressureIn,VisibilityMPH,Wind Direction,Wind SpeedMPH,Gust SpeedMPH,PrecipitationIn,Events,Conditions,WindDirDegrees,DateUTC
12:15 AM,36.1,36.0,99,29.96,10.0,Calm,Calm,-,N/A,,Clear,0,2013-10-08 05:15:00
12:35 AM,35.8,35.6,99,29.97,10.0,Calm,Calm,-,N/A,,Clear,0,2013-10-08 05:35:00
12:55 AM,34.7,34.2,98,29.97,10.0,Calm,Calm,-,N/A,,Clear,0,2013-10-08 05:55:00
1:15 AM,33.4,33.1,99,29.96,10.0,Calm,Calm,-,N/A,,Clear,0,2013-10-08 06:15:00
1:35 AM,34.7,34.3,99,29.97,10.0,Calm,Calm,-,N/A,,Clear,0,2013-10-08 06:35:00
1:55 AM,33.6,33.3,99,29.97,10.0,Calm,Calm,-,N/A,,Clear,0,2013-10-08 06:55:00
2:15 AM,33.4,33.1,99,29.97,5.0,Calm,Calm,-,N/A,,Clear,0,2013-10-08 07:15:00
2:35 AM,32.5,32.4,99,29.96,10.0,Calm,Calm,-,N/A,,Clear,0,2013-10-08 07:35:00
2:55 AM,32.0,31.8,99,29.96,2.5,Calm,Calm,-,N/A,,Clear,0,2013-10-08 07:55:00
3:15 AM,33.4,33.4,100,29.96,1.0,Calm,Calm,-,N/A,,Mist,0,2013-10-08 08:15:00
3:35 AM,32.2,32.2,100,29.96,7.0,Calm,Calm,-,N/A,,Clear,0,2013-10-08 08:35:00
3:55 AM,32.2,32.0,99,29.95,5.0,Calm,Calm,-,N/A,,Clear,0,2013-10-08 08:55:00
4:15 AM,31.5,31.5,100,29.95,1.0,Calm,Calm,-,N/A,,Mist,0,2013-10-08 09:15:00
4:35 AM,32.2,32.2,100,29.96,1.8,Calm,Calm,-,N/A,,Mist,0,2013-10-08 09:35:00
4:55 AM,32.2,32.2,100,29.96,10.0,Calm,Calm,-,N/A,,Clear,0,2013-10-08 09:55:00
5:15 AM,31.6,31.3,99,29.95,10.0,Calm,Calm,-,N/A,,Clear,0,2013-10-08 10:15:00
5:35 AM,32.0,31.8,99,29.94,10.0,Calm,Calm,-,N/A,,Clear,0,2013-10-08 10:35:00
5:55 AM,31.8,31.6,99,29.94,10.0,Calm,Calm,-,N/A,,Clear,0,2013-10-08 10:55:00
6:15 AM,31.1,30.6,98,29.94,10.0,Calm,Calm,-,N/A,,Clear,0,2013-10-08 11:15:00
6:35 AM,32.4,31.6,97,29.94,10.0,Calm,Calm,-,N/A,,Clear,0,2013-10-08 11:35:00
6:55 AM,32.5,32.0,98,29.93,10.0,Calm,Calm,-,N/A,,Clear,0,2013-10-08 11:55:00
7:15 AM,33.6,33.3,99,29.93,10.0,Calm,Calm,-,N/A,,Clear,0,2013-10-08 12:15:00
7:35 AM,36.7,34.2,91,29.93,10.0,Calm,Calm,-,N/A,,Clear,0,2013-10-08 12:35:00
7:55 AM,43.9,39.2,84,29.92,10.0,South,4.6,-,N/A,,Clear,180,2013-10-08 12:55:00
8:15 AM,47.1,41.7,81,29.92,10.0,South,5.8,-,N/A,,Clear,190,2013-10-08 13:15:00
8:35 AM,48.9,43.5,82,29.92,10.0,SSE,3.5,-,N/A,,Clear,150,2013-10-08 13:35:00
8:55 AM,51.6,44.4,76,29.91,10.0,SE,3.5,-,N/A,,Clear,130,2013-10-08 13:55:00
9:15 AM,53.6,44.4,71,29.91,10.0,SE,3.5,-,N/A,,Clear,130,2013-10-08 14:15:00
9:35 AM,55.4,45.0,68,29.89,10.0,Calm,Calm,-,N/A,,Clear,0,2013-10-08 14:35:00
9:55 AM,56.7,45.0,65,29.89,10.0,Calm,Calm,-,N/A,,Clear,0,2013-10-08 14:55:00
10:15 AM,59.5,45.5,60,29.88,10.0,ESE,3.5,-,N/A,,Clear,120,2013-10-08 15:15:00
10:35 AM,61.9,46.2,56,29.87,10.0,Calm,Calm,-,N/A,,Clear,0,2013-10-08 15:35:00
10:55 AM,61.5,48.7,63,29.86,10.0,ENE,4.6,-,N/A,,Clear,60,2013-10-08 15:55:00
11:15 AM,60.6,48.0,63,29.86,10.0,NNE,5.8,-,N/A,,Clear,30,2013-10-08 16:15:00
11:35 AM,59.4,49.1,69,29.85,10.0,NE,9.2,-,N/A,,Clear,50,2013-10-08 16:35:00
11:55 AM,57.9,49.6,74,29.85,10.0,NE,9.2,-,N/A,,Clear,40,2013-10-08 16:55:00
12:15 PM,59.4,50.4,72,29.84,10.0,NNE,8.1,-,N/A,,Clear,30,2013-10-08 17:15:00
12:35 PM,58.8,49.6,72,29.83,10.0,NNE,8.1,-,N/A,,Clear,30,2013-10-08 17:35:00
12:55 PM,57.0,49.3,75,29.82,10.0,NNE,6.9,-,N/A,,Clear,30,2013-10-08 17:55:00
1:15 PM,59.9,50.4,71,29.81,10.0,NNE,8.1,-,N/A,,Clear,30,2013-10-08 18:15:00
1:35 PM,60.3,50.9,71,29.80,10.0,NE,6.9,-,N/A,,Clear,40,2013-10-08 18:35:00
1:55 PM,62.6,50.9,66,29.79,10.0,North,9.2,-,N/A,,Clear,360,2013-10-08 18:55:00
2:15 PM,62.4,51.3,67,29.79,10.0,North,6.9,-,N/A,,Clear,10,2013-10-08 19:15:00
2:35 PM,62.8,51.3,66,29.79,10.0,Calm,Calm,-,N/A,,Clear,0,2013-10-08 19:35:00
2:55 PM,73.8,48.2,40,29.78,10.0,SSW,17.3,25.3,N/A,,Clear,200,2013-10-08 19:55:00
3:15 PM,75.7,46.8,36,29.77,10.0,SSW,18.4,26.5,N/A,,Clear,210,2013-10-08 20:15:00
3:35 PM,74.1,46.6,37,29.77,10.0,SSW,20.7,25.3,N/A,,Clear,200,2013-10-08 20:35:00
3:55 PM,75.6,45.5,34,29.76,10.0,SSW,16.1,27.6,N/A,,Clear,200,2013-10-08 20:55:00
4:15 PM,73.9,45.1,36,29.77,10.0,SSW,19.6,26.5,N/A,,Clear,200,2013-10-08 21:15:00
4:35 PM,75.2,45.3,34,29.76,10.0,SSW,17.3,24.2,N/A,,Clear,200,2013-10-08 21:35:00
4:55 PM,73.6,46.2,38,29.76,10.0,SSW,13.8,-,N/A,,Clear,200,2013-10-08 21:55:00
5:15 PM,71.8,45.7,39,29.77,10.0,SSW,11.5,25.3,N/A,,Clear,210,2013-10-08 22:15:00
5:35 PM,71.8,44.1,37,29.77,10.0,SSW,18.4,29.9,N/A,,Clear,210,2013-10-08 22:35:00
5:55 PM,71.6,44.2,37,29.78,10.0,SSW,15.0,24.2,N/A,,Clear,210,2013-10-08 22:55:00
6:15 PM,69.3,45.0,42,29.78,10.0,SSW,12.7,17.3,N/A,,Clear,200,2013-10-08 23:15:00
6:35 PM,68.0,45.0,43,29.79,10.0,SSW,10.4,-,N/A,,Clear,210,2013-10-08 23:35:00
6:55 PM,66.7,45.0,45,29.79,10.0,SSW,9.2,-,N/A,,Clear,200,2013-10-08 23:55:00
7:15 PM,65.3,45.1,48,29.79,10.0,SSW,6.9,-,N/A,,Clear,200,2013-10-09 00:15:00
7:35 PM,64.8,45.1,49,29.80,10.0,SW,5.8,-,N/A,,Clear,220,2013-10-09 00:35:00
7:55 PM,65.3,45.0,48,29.81,10.0,SW,6.9,-,N/A,,Clear,230,2013-10-09 00:55:00
8:15 PM,64.2,45.3,50,29.81,10.0,SW,9.2,-,N/A,,Clear,220,2013-10-09 01:15:00
8:35 PM,64.4,45.1,50,29.82,10.0,SSW,9.2,-,N/A,,Clear,210,2013-10-09 01:35:00
8:55 PM,63.5,45.1,51,29.83,10.0,SSW,8.1,-,N/A,,Clear,210,2013-10-09 01:55:00
9:15 PM,63.1,45.5,53,29.83,10.0,SSW,9.2,-,N/A,,Clear,210,2013-10-09 02:15:00
9:35 PM,64.0,45.1,50,29.83,10.0,SSW,9.2,-,N/A,,Clear,210,2013-10-09 02:35:00
9:55 PM,63.9,45.1,51,29.84,10.0,SSW,10.4,-,N/A,,Clear,210,2013-10-09 02:55:00
10:15 PM,64.2,45.0,50,29.84,10.0,SSW,10.4,-,N/A,,Clear,210,2013-10-09 03:15:00
10:35 PM,64.8,45.0,49,29.84,10.0,SSW,10.4,19.6,N/A,,Clear,210,2013-10-09 03:35:00
10:55 PM,64.6,45.3,50,29.85,10.0,SSW,12.7,20.7,N/A,,Clear,210,2013-10-09 03:55:00
11:15 PM,64.8,45.1,49,29.85,10.0,SW,15.0,21.9,N/A,,Clear,220,2013-10-09 04:15:00
11:35 PM,64.9,45.3,49,29.86,10.0,SW,13.8,20.7,N/A,,Clear,220,2013-10-09 04:35:00
11:55 PM,64.8,45.5,50,29.86,10.0,SW,13.8,20.7,N/A,,Clear,220,2013-10-09 04:55:00